createdAt,value
2019-01-31T00:00:32.154Z,-1.80
2019-01-31T00:07:10.106Z,-1.80
2019-01-31T00:13:46.242Z,-2.10
2019-01-31T00:20:16.250Z,-1.80
2019-01-31T00:26:51.854Z,-1.80
2019-01-31T00:33:29.324Z,-1.80
2019-01-31T00:40:14.803Z,-1.80
2019-01-31T00:47:02.726Z,-1.90
2019-01-31T00:53:56.917Z,-1.80
2019-01-31T01:00:40.802Z,-1.90
2019-01-31T01:07:38.436Z,-2.00
2019-01-31T01:14:22.123Z,-1.90
2019-01-31T01:20:50.531Z,-2.00
2019-01-31T01:27:10.610Z,-2.00
2019-01-31T01:33:48.555Z,-2.00
2019-01-31T01:40:32.317Z,-2.00
2019-01-31T01:47:20.378Z,-1.90
2019-01-31T01:53:43.213Z,-1.90
2019-01-31T02:00:30.365Z,-1.90
2019-01-31T02:06:49.287Z,-1.80
2019-01-31T02:13:44.533Z,-1.80
2019-01-31T02:20:11.945Z,-1.70
2019-01-31T02:27:18.619Z,-1.70
2019-01-31T02:34:12.861Z,-1.60
2019-01-31T02:41:13.045Z,-1.70
2019-01-31T02:47:58.235Z,-1.60
2019-01-31T02:54:51.477Z,-1.60
2019-01-31T03:01:36.558Z,-1.60
2019-01-31T03:08:10.942Z,-1.60
2019-01-31T03:14:38.822Z,-1.60
2019-01-31T03:21:39.196Z,-1.60
2019-01-31T03:28:21.626Z,-1.60
2019-01-31T03:35:28.039Z,-1.70
2019-01-31T03:41:48.212Z,-1.70
2019-01-31T03:48:25.192Z,-1.70
2019-01-31T03:54:43.902Z,-1.70
2019-01-31T04:01:20.434Z,-1.80
2019-01-31T04:07:24.681Z,-1.90
2019-01-31T04:13:28.930Z,-2.00
2019-01-31T04:19:33.146Z,-2.00
2019-01-31T04:25:37.875Z,-2.10
2019-01-31T04:31:42.233Z,-2.20
2019-01-31T04:37:46.539Z,-2.00
2019-01-31T04:43:50.825Z,-2.20
2019-01-31T04:49:55.123Z,-2.20
2019-01-31T04:55:59.346Z,-2.20
2019-01-31T05:02:03.732Z,-2.30
2019-01-31T05:08:08.019Z,-2.20
2019-01-31T05:14:12.234Z,-2.20
2019-01-31T05:20:18.516Z,-2.30
2019-01-31T05:26:22.789Z,-2.40
2019-01-31T05:32:27.051Z,-2.50
2019-01-31T05:38:31.276Z,-2.50
2019-01-31T05:44:35.585Z,-2.60
2019-01-31T05:50:39.820Z,-2.50
2019-01-31T05:56:44.038Z,-2.70
2019-01-31T06:02:48.337Z,-2.70
2019-01-31T06:08:52.617Z,-2.80
2019-01-31T06:14:56.906Z,-2.90
2019-01-31T06:21:01.257Z,-2.90
2019-01-31T06:27:05.495Z,-3.00
2019-01-31T06:33:09.713Z,-3.00
2019-01-31T06:39:14.013Z,-3.00
2019-01-31T06:45:19.540Z,-3.00
2019-01-31T06:51:24.009Z,-3.00
2019-01-31T06:57:28.238Z,-2.80
2019-01-31T07:03:32.578Z,-3.00
2019-01-31T07:09:36.820Z,-3.20
2019-01-31T07:15:41.138Z,-3.20
2019-01-31T07:21:45.399Z,-3.00
2019-01-31T07:27:49.751Z,-3.10
2019-01-31T07:33:54.000Z,-3.00
2019-01-31T07:39:58.228Z,-3.00
2019-01-31T07:46:02.528Z,-3.00
2019-01-31T07:52:06.798Z,-3.00
2019-01-31T07:58:11.089Z,-2.90
2019-01-31T08:04:15.601Z,-2.90
2019-01-31T08:10:27.876Z,-2.80
2019-01-31T08:16:32.110Z,-2.80
2019-01-31T08:22:36.525Z,-3.00
2019-01-31T08:28:40.803Z,-3.00
2019-01-31T08:34:45.080Z,-3.00
2019-01-31T08:40:49.283Z,-2.90
2019-01-31T08:46:53.519Z,-2.70
2019-01-31T08:52:57.749Z,-2.60
2019-01-31T08:59:02.103Z,-2.50
2019-01-31T09:05:06.839Z,-2.50
2019-01-31T09:11:11.039Z,-2.30
2019-01-31T09:17:15.379Z,-2.20
2019-01-31T09:23:48.261Z,-2.10
2019-01-31T09:30:45.505Z,-2.00
2019-01-31T09:37:50.167Z,-1.80
2019-01-31T09:44:32.531Z,-1.80
2019-01-31T09:51:17.477Z,-1.60
2019-01-31T09:58:11.624Z,-1.40
2019-01-31T10:04:43.553Z,-1.30
2019-01-31T10:11:29.607Z,-1.10
2019-01-31T10:18:12.514Z,-1.00
2019-01-31T10:24:50.961Z,-1.00
2019-01-31T10:31:26.059Z,-0.90
2019-01-31T10:38:09.840Z,-0.80
2019-01-31T10:44:37.035Z,-0.80
2019-01-31T10:51:06.007Z,-0.60
2019-01-31T10:57:39.010Z,-0.60
2019-01-31T11:04:15.014Z,-0.40
2019-01-31T11:10:44.056Z,-0.40
2019-01-31T11:17:03.280Z,-0.20
2019-01-31T11:23:22.420Z,-0.20
2019-01-31T11:29:53.706Z,-0.20
2019-01-31T11:36:26.306Z,-0.10
2019-01-31T11:43:14.742Z,-0.10
2019-01-31T11:49:59.094Z,0.00
2019-01-31T11:56:50.645Z,0.00
2019-01-31T12:02:55.422Z,0.10
2019-01-31T12:08:59.633Z,0.20
2019-01-31T12:15:04.038Z,0.30
2019-01-31T12:21:08.265Z,0.30
2019-01-31T12:27:12.554Z,0.40
2019-01-31T12:33:16.840Z,0.30
2019-01-31T12:39:21.070Z,0.40
2019-01-31T12:45:25.290Z,0.50
2019-01-31T12:51:29.931Z,0.40
2019-01-31T12:57:34.161Z,0.30
2019-01-31T13:03:38.985Z,0.40
2019-01-31T13:09:43.286Z,0.40
2019-01-31T13:15:47.539Z,0.30
2019-01-31T13:21:51.861Z,0.30
2019-01-31T13:27:56.089Z,0.20
2019-01-31T13:34:00.355Z,0.10
2019-01-31T13:40:05.361Z,0.20
2019-01-31T13:46:10.076Z,0.30
2019-01-31T13:52:14.379Z,0.30
2019-01-31T13:58:18.592Z,0.30
2019-01-31T14:04:22.843Z,0.20
2019-01-31T14:10:27.340Z,0.20
2019-01-31T14:16:31.545Z,0.20
2019-01-31T14:22:42.877Z,0.20
2019-01-31T14:28:41.667Z,0.30
2019-01-31T14:34:46.048Z,0.20
2019-01-31T14:40:50.288Z,0.20
2019-01-31T14:46:54.562Z,0.20
2019-01-31T14:52:58.764Z,0.20
2019-01-31T14:59:03.094Z,0.20
2019-01-31T15:05:09.522Z,0.20
2019-01-31T15:11:13.744Z,0.20
2019-01-31T15:17:18.066Z,0.30
2019-01-31T15:23:22.288Z,0.30
2019-01-31T15:29:26.578Z,0.40
2019-01-31T15:35:31.115Z,0.40
2019-01-31T15:41:35.474Z,0.40
2019-01-31T15:47:39.712Z,0.50
2019-01-31T15:53:44.126Z,0.50
2019-01-31T15:59:48.402Z,0.60
2019-01-31T16:05:52.823Z,0.60
2019-01-31T16:11:59.708Z,0.60
2019-01-31T16:18:03.162Z,0.60
2019-01-31T16:24:07.384Z,0.60
2019-01-31T16:30:13.081Z,0.80
2019-01-31T16:36:17.567Z,0.70
2019-01-31T16:42:21.815Z,0.70
2019-01-31T16:48:26.074Z,0.70
2019-01-31T16:54:30.373Z,0.60
2019-01-31T17:00:34.988Z,0.50
2019-01-31T17:06:39.428Z,0.30
2019-01-31T17:12:43.795Z,0.30
2019-01-31T17:18:48.109Z,0.10
2019-01-31T17:24:52.594Z,0.00
2019-01-31T17:30:56.874Z,-0.10
2019-01-31T17:37:01.293Z,-0.20
2019-01-31T17:43:06.009Z,-0.30
2019-01-31T17:49:10.255Z,-0.40
2019-01-31T17:55:16.532Z,-0.40
2019-01-31T18:01:20.902Z,-0.50
2019-01-31T18:07:25.126Z,-0.50
2019-01-31T18:13:29.401Z,-0.60
2019-01-31T18:19:33.651Z,-0.60
2019-01-31T18:25:38.018Z,-0.50
2019-01-31T18:31:42.237Z,-0.50
2019-01-31T18:37:46.496Z,-0.60
2019-01-31T18:43:50.901Z,-0.70
2019-01-31T18:49:55.221Z,-0.80
2019-01-31T18:55:59.511Z,-0.80
2019-01-31T19:02:03.963Z,-0.70
2019-01-31T19:08:09.413Z,-0.70
2019-01-31T19:14:14.491Z,-0.60
2019-01-31T19:20:21.359Z,-0.60
2019-01-31T19:26:25.639Z,-0.50
2019-01-31T19:32:29.844Z,-0.50
2019-01-31T19:38:34.172Z,-0.40
2019-01-31T19:44:41.743Z,-0.30
2019-01-31T19:50:44.678Z,-0.30
2019-01-31T19:56:48.906Z,-0.20
2019-01-31T20:02:53.336Z,-0.20
2019-01-31T20:08:57.684Z,-0.20
2019-01-31T20:15:02.008Z,-0.20
2019-01-31T20:21:06.309Z,-0.20
2019-01-31T20:27:10.654Z,-0.10
2019-01-31T20:33:14.915Z,-0.10
2019-01-31T20:39:19.345Z,-0.10
2019-01-31T20:45:23.665Z,0.00
2019-01-31T20:51:27.872Z,0.10
2019-01-31T20:57:32.178Z,0.10
2019-01-31T21:03:36.517Z,0.00
2019-01-31T21:09:40.807Z,0.10
2019-01-31T21:15:45.035Z,0.00
2019-01-31T21:21:49.301Z,0.10
2019-01-31T21:27:53.711Z,0.00
2019-01-31T21:33:57.929Z,0.00
2019-01-31T21:40:02.226Z,0.00
2019-01-31T21:46:06.563Z,0.00
2019-01-31T21:52:10.778Z,0.00
2019-01-31T21:58:15.384Z,0.00
2019-01-31T22:04:19.585Z,0.00
2019-01-31T22:10:24.043Z,0.00
2019-01-31T22:16:28.342Z,0.00
2019-01-31T22:22:32.690Z,0.00
2019-01-31T22:28:36.913Z,0.00
2019-01-31T22:34:41.222Z,0.00
2019-01-31T22:40:45.627Z,0.00
2019-01-31T22:46:49.868Z,0.00
2019-01-31T22:52:54.064Z,0.00
2019-01-31T22:58:58.325Z,0.00
2019-01-31T23:05:02.970Z,0.10
2019-01-31T23:11:07.350Z,0.10
2019-01-31T23:17:11.569Z,0.10
2019-01-31T23:23:15.767Z,0.10
2019-01-31T23:29:20.026Z,0.00
2019-01-31T23:35:24.239Z,-0.10
2019-01-31T23:41:28.674Z,-0.20
2019-01-31T23:47:32.995Z,-0.20
2019-01-31T23:53:37.337Z,-0.30
2019-01-31T23:59:41.588Z,-0.30
